sensor_id;sensor_type;location;lat;lon;timestamp;P1;durP1;ratioP1;P2;durP2;ratioP2
63653;SDS011;49809;47.418;19.080;2024-01-30T00:01:12;43.05;;;19.58;;
63653;SDS011;49809;47.418;19.080;2024-01-30T00:04:16;44.28;;;20.33;;
63653;SDS011;49809;47.418;19.080;2024-01-30T00:07:26;48.45;;;17.25;;
63653;SDS011;49809;47.418;19.080;2024-01-30T00:10:34;43.55;;;18.70;;
63653;SDS011;49809;47.418;19.080;2024-01-30T00:13:38;43.70;;;17.80;;
63653;SDS011;49809;47.418;19.080;2024-01-30T00:16:53;39.72;;;17.33;;
63653;SDS011;49809;47.418;19.080;2024-01-30T00:19:58;37.08;;;16.33;;
63653;SDS011;49809;47.418;19.080;2024-01-30T00:23:03;42.85;;;16.92;;
63653;SDS011;49809;47.418;19.080;2024-01-30T00:26:05;40.25;;;18.20;;
63653;SDS011;49809;47.418;19.080;2024-01-30T00:29:11;38.65;;;16.23;;
63653;SDS011;49809;47.418;19.080;2024-01-30T00:32:24;44.80;;;17.83;;
63653;SDS011;49809;47.418;19.080;2024-01-30T00:35:27;37.67;;;15.77;;
63653;SDS011;49809;47.418;19.080;2024-01-30T00:38:32;39.28;;;17.45;;
63653;SDS011;49809;47.418;19.080;2024-01-30T00:41:37;44.15;;;17.48;;
63653;SDS011;49809;47.418;19.080;2024-01-30T00:44:40;38.55;;;16.23;;
63653;SDS011;49809;47.418;19.080;2024-01-30T00:47:46;36.85;;;15.65;;
63653;SDS011;49809;47.418;19.080;2024-01-30T00:50:51;34.97;;;15.75;;
63653;SDS011;49809;47.418;19.080;2024-01-30T00:53:55;37.15;;;15.38;;
63653;SDS011;49809;47.418;19.080;2024-01-30T00:57:03;39.65;;;16.17;;
63653;SDS011;49809;47.418;19.080;2024-01-30T01:00:09;41.47;;;16.48;;
63653;SDS011;49809;47.418;19.080;2024-01-30T01:03:17;32.72;;;16.27;;
63653;SDS011;49809;47.418;19.080;2024-01-30T01:06:21;35.42;;;14.98;;
63653;SDS011;49809;47.418;19.080;2024-01-30T01:09:25;34.10;;;15.30;;
63653;SDS011;49809;47.418;19.080;2024-01-30T01:12:29;44.05;;;16.65;;
63653;SDS011;49809;47.418;19.080;2024-01-30T01:15:34;36.60;;;15.07;;
63653;SDS011;49809;47.418;19.080;2024-01-30T01:18:39;35.58;;;15.32;;
63653;SDS011;49809;47.418;19.080;2024-01-30T01:21:47;34.85;;;14.77;;
63653;SDS011;49809;47.418;19.080;2024-01-30T01:24:55;34.13;;;14.80;;
63653;SDS011;49809;47.418;19.080;2024-01-30T01:28:00;38.53;;;14.10;;
63653;SDS011;49809;47.418;19.080;2024-01-30T01:31:07;35.88;;;14.05;;
63653;SDS011;49809;47.418;19.080;2024-01-30T01:34:11;38.30;;;15.30;;
63653;SDS011;49809;47.418;19.080;2024-01-30T01:37:19;38.80;;;15.38;;
63653;SDS011;49809;47.418;19.080;2024-01-30T01:40:27;44.58;;;16.42;;
63653;SDS011;49809;47.418;19.080;2024-01-30T01:43:30;46.05;;;18.02;;
63653;SDS011;49809;47.418;19.080;2024-01-30T01:46:36;40.97;;;17.43;;
63653;SDS011;49809;47.418;19.080;2024-01-30T01:49:42;50.42;;;19.12;;
63653;SDS011;49809;47.418;19.080;2024-01-30T01:52:52;49.63;;;18.45;;
63653;SDS011;49809;47.418;19.080;2024-01-30T01:56:02;44.92;;;18.17;;
63653;SDS011;49809;47.418;19.080;2024-01-30T01:59:08;41.42;;;17.37;;
63653;SDS011;49809;47.418;19.080;2024-01-30T02:02:18;45.90;;;15.68;;
63653;SDS011;49809;47.418;19.080;2024-01-30T02:05:24;49.53;;;23.12;;
63653;SDS011;49809;47.418;19.080;2024-01-30T02:12:49;54.78;;;20.27;;
63653;SDS011;49809;47.418;19.080;2024-01-30T02:15:53;52.55;;;21.92;;
63653;SDS011;49809;47.418;19.080;2024-01-30T02:18:55;50.85;;;19.20;;
63653;SDS011;49809;47.418;19.080;2024-01-30T02:22:02;49.67;;;18.83;;
63653;SDS011;49809;47.418;19.080;2024-01-30T02:25:32;45.63;;;18.33;;
63653;SDS011;49809;47.418;19.080;2024-01-30T02:28:41;51.33;;;18.98;;
63653;SDS011;49809;47.418;19.080;2024-01-30T02:31:45;47.00;;;18.23;;
63653;SDS011;49809;47.418;19.080;2024-01-30T02:34:55;47.03;;;17.77;;
63653;SDS011;49809;47.418;19.080;2024-01-30T02:37:58;45.42;;;17.25;;
63653;SDS011;49809;47.418;19.080;2024-01-30T02:41:01;41.65;;;17.60;;
63653;SDS011;49809;47.418;19.080;2024-01-30T02:44:05;46.40;;;17.60;;
63653;SDS011;49809;47.418;19.080;2024-01-30T02:47:08;55.53;;;19.15;;
63653;SDS011;49809;47.418;19.080;2024-01-30T02:50:14;48.95;;;18.45;;
63653;SDS011;49809;47.418;19.080;2024-01-30T02:53:18;43.22;;;17.77;;
63653;SDS011;49809;47.418;19.080;2024-01-30T02:56:24;45.88;;;18.23;;
63653;SDS011;49809;47.418;19.080;2024-01-30T02:59:30;42.60;;;17.87;;
63653;SDS011;49809;47.418;19.080;2024-01-30T03:02:40;51.78;;;18.42;;
63653;SDS011;49809;47.418;19.080;2024-01-30T03:05:46;41.88;;;17.08;;
63653;SDS011;49809;47.418;19.080;2024-01-30T03:08:49;34.70;;;16.15;;
63653;SDS011;49809;47.418;19.080;2024-01-30T03:11:54;44.83;;;17.08;;
63653;SDS011;49809;47.418;19.080;2024-01-30T03:14:56;39.67;;;16.85;;
63653;SDS011;49809;47.418;19.080;2024-01-30T03:18:01;40.90;;;16.62;;
63653;SDS011;49809;47.418;19.080;2024-01-30T03:21:30;46.37;;;18.37;;
63653;SDS011;49809;47.418;19.080;2024-01-30T03:25:06;35.20;;;15.73;;
63653;SDS011;49809;47.418;19.080;2024-01-30T03:28:13;39.85;;;16.35;;
63653;SDS011;49809;47.418;19.080;2024-01-30T03:31:16;43.40;;;16.17;;
63653;SDS011;49809;47.418;19.080;2024-01-30T03:34:20;42.38;;;16.20;;
63653;SDS011;49809;47.418;19.080;2024-01-30T03:37:22;36.05;;;16.02;;
63653;SDS011;49809;47.418;19.080;2024-01-30T03:40:30;35.63;;;15.30;;
63653;SDS011;49809;47.418;19.080;2024-01-30T03:43:37;35.25;;;15.18;;
63653;SDS011;49809;47.418;19.080;2024-01-30T03:46:40;35.78;;;15.65;;
63653;SDS011;49809;47.418;19.080;2024-01-30T03:49:44;34.53;;;14.90;;
63653;SDS011;49809;47.418;19.080;2024-01-30T03:53:09;36.58;;;15.52;;
63653;SDS011;49809;47.418;19.080;2024-01-30T03:56:12;33.05;;;14.93;;
63653;SDS011;49809;47.418;19.080;2024-01-30T03:59:21;41.42;;;15.25;;
63653;SDS011;49809;47.418;19.080;2024-01-30T04:02:26;33.95;;;15.15;;
63653;SDS011;49809;47.418;19.080;2024-01-30T04:05:30;34.28;;;13.93;;
63653;SDS011;49809;47.418;19.080;2024-01-30T04:08:33;35.17;;;14.10;;
63653;SDS011;49809;47.418;19.080;2024-01-30T04:11:37;34.28;;;14.05;;
63653;SDS011;49809;47.418;19.080;2024-01-30T04:14:41;30.17;;;13.25;;
63653;SDS011;49809;47.418;19.080;2024-01-30T04:17:44;33.58;;;14.48;;
63653;SDS011;49809;47.418;19.080;2024-01-30T04:20:54;33.83;;;12.70;;
63653;SDS011;49809;47.418;19.080;2024-01-30T04:24:01;29.15;;;13.48;;
63653;SDS011;49809;47.418;19.080;2024-01-30T04:27:05;34.22;;;14.48;;
63653;SDS011;49809;47.418;19.080;2024-01-30T04:30:08;29.95;;;14.10;;
63653;SDS011;49809;47.418;19.080;2024-01-30T04:33:16;29.63;;;13.75;;
63653;SDS011;49809;47.418;19.080;2024-01-30T04:39:28;27.42;;;12.30;;
63653;SDS011;49809;47.418;19.080;2024-01-30T04:42:34;31.40;;;13.50;;
63653;SDS011;49809;47.418;19.080;2024-01-30T04:45:36;30.02;;;13.32;;
63653;SDS011;49809;47.418;19.080;2024-01-30T04:48:41;34.28;;;14.05;;
63653;SDS011;49809;47.418;19.080;2024-01-30T04:51:45;32.38;;;13.38;;
63653;SDS011;49809;47.418;19.080;2024-01-30T04:55:05;32.70;;;14.20;;
63653;SDS011;49809;47.418;19.080;2024-01-30T04:58:15;32.28;;;13.77;;
63653;SDS011;49809;47.418;19.080;2024-01-30T05:01:20;33.03;;;14.73;;
63653;SDS011;49809;47.418;19.080;2024-01-30T05:04:23;33.08;;;14.70;;
63653;SDS011;49809;47.418;19.080;2024-01-30T05:07:27;30.83;;;14.30;;
63653;SDS011;49809;47.418;19.080;2024-01-30T05:10:37;31.73;;;12.82;;
63653;SDS011;49809;47.418;19.080;2024-01-30T05:13:45;31.25;;;12.77;;
63653;SDS011;49809;47.418;19.080;2024-01-30T05:16:52;29.92;;;13.02;;
63653;SDS011;49809;47.418;19.080;2024-01-30T05:19:58;31.43;;;14.07;;
63653;SDS011;49809;47.418;19.080;2024-01-30T05:23:21;32.00;;;13.68;;
63653;SDS011;49809;47.418;19.080;2024-01-30T05:26:27;30.05;;;12.88;;
63653;SDS011;49809;47.418;19.080;2024-01-30T05:29:30;27.08;;;11.63;;
63653;SDS011;49809;47.418;19.080;2024-01-30T05:32:36;33.85;;;12.60;;
63653;SDS011;49809;47.418;19.080;2024-01-30T05:35:40;30.50;;;12.18;;
63653;SDS011;49809;47.418;19.080;2024-01-30T05:38:48;30.70;;;13.50;;
63653;SDS011;49809;47.418;19.080;2024-01-30T05:41:54;21.52;;;11.23;;
63653;SDS011;49809;47.418;19.080;2024-01-30T05:45:00;26.62;;;11.70;;
63653;SDS011;49809;47.418;19.080;2024-01-30T05:48:08;27.52;;;11.65;;
63653;SDS011;49809;47.418;19.080;2024-01-30T05:51:16;31.17;;;12.88;;
63653;SDS011;49809;47.418;19.080;2024-01-30T05:54:45;30.73;;;12.80;;
63653;SDS011;49809;47.418;19.080;2024-01-30T05:57:48;32.38;;;14.55;;
63653;SDS011;49809;47.418;19.080;2024-01-30T06:00:51;32.42;;;15.18;;
63653;SDS011;49809;47.418;19.080;2024-01-30T06:03:55;33.35;;;15.95;;
63653;SDS011;49809;47.418;19.080;2024-01-30T06:07:08;35.15;;;15.90;;
63653;SDS011;49809;47.418;19.080;2024-01-30T06:10:16;35.00;;;15.73;;
63653;SDS011;49809;47.418;19.080;2024-01-30T06:13:39;33.80;;;14.40;;
63653;SDS011;49809;47.418;19.080;2024-01-30T06:17:23;39.90;;;14.02;;
63653;SDS011;49809;47.418;19.080;2024-01-30T06:20:29;39.17;;;14.50;;
63653;SDS011;49809;47.418;19.080;2024-01-30T06:23:36;34.58;;;14.87;;
63653;SDS011;49809;47.418;19.080;2024-01-30T06:26:43;39.45;;;18.37;;
63653;SDS011;49809;47.418;19.080;2024-01-30T06:29:47;52.47;;;21.25;;
63653;SDS011;49809;47.418;19.080;2024-01-30T06:33:11;40.33;;;15.43;;
63653;SDS011;49809;47.418;19.080;2024-01-30T06:36:17;34.92;;;15.30;;
63653;SDS011;49809;47.418;19.080;2024-01-30T06:39:21;40.38;;;15.73;;
63653;SDS011;49809;47.418;19.080;2024-01-30T06:42:28;38.17;;;15.50;;
63653;SDS011;49809;47.418;19.080;2024-01-30T06:45:34;41.22;;;15.35;;
63653;SDS011;49809;47.418;19.080;2024-01-30T06:48:38;38.22;;;15.80;;
63653;SDS011;49809;47.418;19.080;2024-01-30T06:51:43;42.40;;;16.33;;
63653;SDS011;49809;47.418;19.080;2024-01-30T06:55:09;42.47;;;17.90;;
63653;SDS011;49809;47.418;19.080;2024-01-30T06:58:37;53.33;;;17.67;;
63653;SDS011;49809;47.418;19.080;2024-01-30T07:02:42;45.70;;;19.27;;
63653;SDS011;49809;47.418;19.080;2024-01-30T07:14:06;40.70;;;18.08;;
63653;SDS011;49809;47.418;19.080;2024-01-30T07:17:12;48.00;;;17.42;;
63653;SDS011;49809;47.418;19.080;2024-01-30T07:20:16;45.33;;;18.15;;
63653;SDS011;49809;47.418;19.080;2024-01-30T07:23:52;42.20;;;18.50;;
63653;SDS011;49809;47.418;19.080;2024-01-30T07:31:52;41.40;;;19.90;;
63653;SDS011;49809;47.418;19.080;2024-01-30T07:35:56;39.92;;;18.83;;
63653;SDS011;49809;47.418;19.080;2024-01-30T07:39:33;38.88;;;17.50;;
63653;SDS011;49809;47.418;19.080;2024-01-30T07:51:55;44.50;;;19.02;;
63653;SDS011;49809;47.418;19.080;2024-01-30T08:08:22;40.35;;;17.58;;
63653;SDS011;49809;47.418;19.080;2024-01-30T08:11:59;38.85;;;17.85;;
63653;SDS011;49809;47.418;19.080;2024-01-30T08:20:08;49.95;;;19.48;;
63653;SDS011;49809;47.418;19.080;2024-01-30T08:23:40;35.20;;;15.93;;
63653;SDS011;49809;47.418;19.080;2024-01-30T08:27:25;37.08;;;16.35;;
63653;SDS011;49809;47.418;19.080;2024-01-30T08:31:04;36.35;;;16.40;;
63653;SDS011;49809;47.418;19.080;2024-01-30T08:56:36;35.80;;;15.35;;
63653;SDS011;49809;47.418;19.080;2024-01-30T09:04:19;29.55;;;13.95;;
63653;SDS011;49809;47.418;19.080;2024-01-30T09:07:58;33.75;;;15.10;;
63653;SDS011;49809;47.418;19.080;2024-01-30T09:20:09;33.53;;;14.30;;
63653;SDS011;49809;47.418;19.080;2024-01-30T09:23:46;30.70;;;13.55;;
63653;SDS011;49809;47.418;19.080;2024-01-30T09:31:45;30.23;;;13.15;;
63653;SDS011;49809;47.418;19.080;2024-01-30T09:35:21;28.87;;;13.88;;
63653;SDS011;49809;47.418;19.080;2024-01-30T09:42:33;33.13;;;14.27;;
63653;SDS011;49809;47.418;19.080;2024-01-30T09:45:40;33.47;;;14.55;;
63653;SDS011;49809;47.418;19.080;2024-01-30T09:48:47;37.38;;;15.98;;
63653;SDS011;49809;47.418;19.080;2024-01-30T09:52:26;32.97;;;15.05;;
63653;SDS011;49809;47.418;19.080;2024-01-30T09:56:13;30.85;;;13.95;;
63653;SDS011;49809;47.418;19.080;2024-01-30T09:59:50;35.58;;;15.80;;
63653;SDS011;49809;47.418;19.080;2024-01-30T10:06:24;34.17;;;14.55;;
63653;SDS011;49809;47.418;19.080;2024-01-30T10:09:33;36.10;;;16.77;;
63653;SDS011;49809;47.418;19.080;2024-01-30T10:13:10;28.42;;;14.07;;
63653;SDS011;49809;47.418;19.080;2024-01-30T10:29:43;28.60;;;14.05;;
63653;SDS011;49809;47.418;19.080;2024-01-30T10:33:31;27.85;;;13.23;;
63653;SDS011;49809;47.418;19.080;2024-01-30T10:41:19;25.80;;;11.55;;
63653;SDS011;49809;47.418;19.080;2024-01-30T10:49:33;25.30;;;12.52;;
63653;SDS011;49809;47.418;19.080;2024-01-30T10:53:17;26.15;;;12.48;;
63653;SDS011;49809;47.418;19.080;2024-01-30T11:01:02;24.83;;;13.30;;
63653;SDS011;49809;47.418;19.080;2024-01-30T11:08:38;30.67;;;14.27;;
63653;SDS011;49809;47.418;19.080;2024-01-30T11:12:03;25.27;;;12.73;;
63653;SDS011;49809;47.418;19.080;2024-01-30T11:15:27;23.52;;;12.15;;
63653;SDS011;49809;47.418;19.080;2024-01-30T11:18:32;30.85;;;13.07;;
63653;SDS011;49809;47.418;19.080;2024-01-30T11:21:42;23.55;;;12.20;;
63653;SDS011;49809;47.418;19.080;2024-01-30T11:24:45;24.65;;;12.00;;
63653;SDS011;49809;47.418;19.080;2024-01-30T11:27:54;28.15;;;12.93;;
63653;SDS011;49809;47.418;19.080;2024-01-30T11:31:38;26.27;;;11.57;;
63653;SDS011;49809;47.418;19.080;2024-01-30T11:34:41;20.70;;;11.45;;
63653;SDS011;49809;47.418;19.080;2024-01-30T11:37:45;19.37;;;10.02;;
63653;SDS011;49809;47.418;19.080;2024-01-30T11:40:52;20.95;;;10.75;;
63653;SDS011;49809;47.418;19.080;2024-01-30T11:43:58;24.25;;;11.12;;
63653;SDS011;49809;47.418;19.080;2024-01-30T11:47:09;20.85;;;11.25;;
63653;SDS011;49809;47.418;19.080;2024-01-30T11:50:17;20.88;;;10.45;;
63653;SDS011;49809;47.418;19.080;2024-01-30T11:53:42;17.67;;;9.82;;
63653;SDS011;49809;47.418;19.080;2024-01-30T11:57:27;18.40;;;10.27;;
63653;SDS011;49809;47.418;19.080;2024-01-30T12:00:30;15.90;;;9.90;;
63653;SDS011;49809;47.418;19.080;2024-01-30T12:06:52;17.12;;;9.88;;
63653;SDS011;49809;47.418;19.080;2024-01-30T12:10:00;14.98;;;8.85;;
63653;SDS011;49809;47.418;19.080;2024-01-30T12:13:10;16.73;;;8.50;;
63653;SDS011;49809;47.418;19.080;2024-01-30T12:16:15;13.50;;;7.90;;
63653;SDS011;49809;47.418;19.080;2024-01-30T12:19:25;14.07;;;7.77;;
63653;SDS011;49809;47.418;19.080;2024-01-30T12:22:35;17.23;;;8.98;;
63653;SDS011;49809;47.418;19.080;2024-01-30T12:25:59;16.62;;;8.52;;
63653;SDS011;49809;47.418;19.080;2024-01-30T12:29:09;13.90;;;7.25;;
63653;SDS011;49809;47.418;19.080;2024-01-30T12:32:15;16.10;;;8.50;;
63653;SDS011;49809;47.418;19.080;2024-01-30T12:35:20;17.70;;;8.02;;
63653;SDS011;49809;47.418;19.080;2024-01-30T12:38:25;15.18;;;7.43;;
63653;SDS011;49809;47.418;19.080;2024-01-30T12:41:33;11.90;;;6.43;;
63653;SDS011;49809;47.418;19.080;2024-01-30T12:44:36;11.70;;;6.47;;
63653;SDS011;49809;47.418;19.080;2024-01-30T12:50:51;16.62;;;6.22;;
63653;SDS011;49809;47.418;19.080;2024-01-30T12:53:57;10.85;;;5.85;;
63653;SDS011;49809;47.418;19.080;2024-01-30T12:57:03;9.70;;;5.35;;
63653;SDS011;49809;47.418;19.080;2024-01-30T13:00:29;14.50;;;5.68;;
63653;SDS011;49809;47.418;19.080;2024-01-30T13:04:09;10.20;;;5.32;;
63653;SDS011;49809;47.418;19.080;2024-01-30T13:07:12;10.18;;;5.32;;
63653;SDS011;49809;47.418;19.080;2024-01-30T13:10:19;9.05;;;4.80;;
63653;SDS011;49809;47.418;19.080;2024-01-30T13:13:23;11.07;;;4.55;;
63653;SDS011;49809;47.418;19.080;2024-01-30T13:16:34;6.65;;;3.87;;
63653;SDS011;49809;47.418;19.080;2024-01-30T13:19:38;9.05;;;4.30;;
63653;SDS011;49809;47.418;19.080;2024-01-30T13:22:41;10.07;;;5.12;;
63653;SDS011;49809;47.418;19.080;2024-01-30T13:25:44;10.45;;;5.90;;
63653;SDS011;49809;47.418;19.080;2024-01-30T13:29:09;8.15;;;5.03;;
63653;SDS011;49809;47.418;19.080;2024-01-30T13:32:15;9.77;;;5.05;;
63653;SDS011;49809;47.418;19.080;2024-01-30T13:35:22;9.85;;;4.82;;
63653;SDS011;49809;47.418;19.080;2024-01-30T13:38:28;8.93;;;4.68;;
63653;SDS011;49809;47.418;19.080;2024-01-30T13:41:33;8.40;;;4.80;;
63653;SDS011;49809;47.418;19.080;2024-01-30T13:44:57;8.85;;;4.85;;
63653;SDS011;49809;47.418;19.080;2024-01-30T13:48:01;8.75;;;5.60;;
63653;SDS011;49809;47.418;19.080;2024-01-30T13:51:10;9.27;;;5.10;;
63653;SDS011;49809;47.418;19.080;2024-01-30T13:54:17;10.50;;;5.60;;
63653;SDS011;49809;47.418;19.080;2024-01-30T13:57:20;11.55;;;5.47;;
63653;SDS011;49809;47.418;19.080;2024-01-30T14:00:33;10.90;;;6.20;;
63653;SDS011;49809;47.418;19.080;2024-01-30T14:03:37;10.73;;;5.53;;
63653;SDS011;49809;47.418;19.080;2024-01-30T14:06:47;9.38;;;5.50;;
63653;SDS011;49809;47.418;19.080;2024-01-30T14:10:09;12.68;;;5.75;;
63653;SDS011;49809;47.418;19.080;2024-01-30T14:13:16;9.75;;;5.78;;
63653;SDS011;49809;47.418;19.080;2024-01-30T14:16:25;10.70;;;5.43;;
63653;SDS011;49809;47.418;19.080;2024-01-30T14:19:29;10.80;;;5.60;;
63653;SDS011;49809;47.418;19.080;2024-01-30T14:22:35;10.30;;;5.80;;
63653;SDS011;49809;47.418;19.080;2024-01-30T14:25:42;10.02;;;5.78;;
63653;SDS011;49809;47.418;19.080;2024-01-30T14:28:53;12.68;;;6.65;;
63653;SDS011;49809;47.418;19.080;2024-01-30T14:31:57;13.15;;;6.10;;
63653;SDS011;49809;47.418;19.080;2024-01-30T14:35:13;11.85;;;6.28;;
63653;SDS011;49809;47.418;19.080;2024-01-30T14:38:16;12.90;;;7.12;;
63653;SDS011;49809;47.418;19.080;2024-01-30T14:41:20;11.65;;;6.70;;
63653;SDS011;49809;47.418;19.080;2024-01-30T14:44:26;14.02;;;6.93;;
63653;SDS011;49809;47.418;19.080;2024-01-30T14:47:29;11.65;;;6.57;;
63653;SDS011;49809;47.418;19.080;2024-01-30T14:50:33;13.40;;;6.65;;
63653;SDS011;49809;47.418;19.080;2024-01-30T14:53:37;12.05;;;6.95;;
63653;SDS011;49809;47.418;19.080;2024-01-30T14:56:40;12.32;;;6.72;;
63653;SDS011;49809;47.418;19.080;2024-01-30T14:59:44;15.93;;;7.97;;
63653;SDS011;49809;47.418;19.080;2024-01-30T15:03:28;17.35;;;8.50;;
63653;SDS011;49809;47.418;19.080;2024-01-30T15:07:07;17.12;;;8.52;;
63653;SDS011;49809;47.418;19.080;2024-01-30T15:10:41;14.05;;;7.82;;
63653;SDS011;49809;47.418;19.080;2024-01-30T15:13:58;13.70;;;7.55;;
63653;SDS011;49809;47.418;19.080;2024-01-30T15:17:35;19.80;;;7.63;;
63653;SDS011;49809;47.418;19.080;2024-01-30T15:21:07;16.02;;;7.75;;
63653;SDS011;49809;47.418;19.080;2024-01-30T15:24:41;16.75;;;8.98;;
63653;SDS011;49809;47.418;19.080;2024-01-30T15:28:17;17.00;;;7.97;;
63653;SDS011;49809;47.418;19.080;2024-01-30T15:31:50;16.67;;;7.10;;
63653;SDS011;49809;47.418;19.080;2024-01-30T15:35:25;16.73;;;8.43;;
63653;SDS011;49809;47.418;19.080;2024-01-30T15:38:40;17.23;;;8.48;;
63653;SDS011;49809;47.418;19.080;2024-01-30T15:41:45;17.20;;;8.70;;
63653;SDS011;49809;47.418;19.080;2024-01-30T15:44:49;21.60;;;8.80;;
63653;SDS011;49809;47.418;19.080;2024-01-30T15:47:53;20.77;;;9.43;;
63653;SDS011;49809;47.418;19.080;2024-01-30T15:51:01;20.00;;;9.40;;
63653;SDS011;49809;47.418;19.080;2024-01-30T15:54:04;20.92;;;9.88;;
63653;SDS011;49809;47.418;19.080;2024-01-30T15:57:10;28.50;;;10.70;;
63653;SDS011;49809;47.418;19.080;2024-01-30T16:00:33;22.42;;;10.00;;
63653;SDS011;49809;47.418;19.080;2024-01-30T16:03:39;17.90;;;9.32;;
63653;SDS011;49809;47.418;19.080;2024-01-30T16:07:08;21.50;;;10.00;;
63653;SDS011;49809;47.418;19.080;2024-01-30T16:10:54;18.65;;;9.18;;
63653;SDS011;49809;47.418;19.080;2024-01-30T16:14:03;22.87;;;9.18;;
63653;SDS011;49809;47.418;19.080;2024-01-30T16:17:08;24.15;;;11.00;;
63653;SDS011;49809;47.418;19.080;2024-01-30T16:20:14;25.83;;;10.35;;
63653;SDS011;49809;47.418;19.080;2024-01-30T16:23:21;23.17;;;9.98;;
63653;SDS011;49809;47.418;19.080;2024-01-30T16:26:26;24.05;;;11.35;;
63653;SDS011;49809;47.418;19.080;2024-01-30T16:29:30;20.23;;;9.90;;
63653;SDS011;49809;47.418;19.080;2024-01-30T16:32:34;23.65;;;11.45;;
63653;SDS011;49809;47.418;19.080;2024-01-30T16:35:40;28.50;;;12.88;;
63653;SDS011;49809;47.418;19.080;2024-01-30T16:39:09;26.65;;;12.88;;
63653;SDS011;49809;47.418;19.080;2024-01-30T16:42:45;31.90;;;13.43;;
63653;SDS011;49809;47.418;19.080;2024-01-30T16:45:53;29.53;;;13.63;;
63653;SDS011;49809;47.418;19.080;2024-01-30T16:48:58;40.80;;;13.60;;
63653;SDS011;49809;47.418;19.080;2024-01-30T16:52:04;38.03;;;16.60;;
63653;SDS011;49809;47.418;19.080;2024-01-30T16:55:27;40.12;;;16.98;;
63653;SDS011;49809;47.418;19.080;2024-01-30T16:58:33;33.53;;;15.90;;
63653;SDS011;49809;47.418;19.080;2024-01-30T17:01:36;35.80;;;15.70;;
63653;SDS011;49809;47.418;19.080;2024-01-30T17:04:40;34.35;;;15.57;;
63653;SDS011;49809;47.418;19.080;2024-01-30T17:07:50;39.22;;;16.30;;
63653;SDS011;49809;47.418;19.080;2024-01-30T17:10:53;39.75;;;16.98;;
63653;SDS011;49809;47.418;19.080;2024-01-30T17:14:00;36.38;;;16.15;;
63653;SDS011;49809;47.418;19.080;2024-01-30T17:17:03;50.85;;;20.25;;
63653;SDS011;49809;47.418;19.080;2024-01-30T17:20:50;36.45;;;16.90;;
63653;SDS011;49809;47.418;19.080;2024-01-30T17:24:18;46.05;;;19.73;;
63653;SDS011;49809;47.418;19.080;2024-01-30T17:28:00;49.40;;;21.87;;
63653;SDS011;49809;47.418;19.080;2024-01-30T17:31:09;55.15;;;21.35;;
63653;SDS011;49809;47.418;19.080;2024-01-30T17:34:31;54.63;;;22.17;;
63653;SDS011;49809;47.418;19.080;2024-01-30T17:37:40;57.90;;;23.10;;
63653;SDS011;49809;47.418;19.080;2024-01-30T17:40:48;52.60;;;22.35;;
63653;SDS011;49809;47.418;19.080;2024-01-30T17:44:16;57.60;;;22.98;;
63653;SDS011;49809;47.418;19.080;2024-01-30T17:47:20;59.78;;;24.60;;
63653;SDS011;49809;47.418;19.080;2024-01-30T17:50:25;53.55;;;23.23;;
63653;SDS011;49809;47.418;19.080;2024-01-30T17:53:28;54.42;;;22.35;;
63653;SDS011;49809;47.418;19.080;2024-01-30T17:56:33;57.17;;;23.10;;
63653;SDS011;49809;47.418;19.080;2024-01-30T17:59:41;55.17;;;23.10;;
63653;SDS011;49809;47.418;19.080;2024-01-30T18:02:45;61.78;;;25.42;;
63653;SDS011;49809;47.418;19.080;2024-01-30T18:06:15;62.60;;;24.97;;
63653;SDS011;49809;47.418;19.080;2024-01-30T18:09:22;58.60;;;25.17;;
63653;SDS011;49809;47.418;19.080;2024-01-30T18:12:29;64.70;;;25.73;;
63653;SDS011;49809;47.418;19.080;2024-01-30T18:16:00;66.18;;;26.58;;
63653;SDS011;49809;47.418;19.080;2024-01-30T18:19:36;73.82;;;25.83;;
63653;SDS011;49809;47.418;19.080;2024-01-30T18:22:41;61.83;;;25.23;;
63653;SDS011;49809;47.418;19.080;2024-01-30T18:25:48;55.90;;;24.42;;
63653;SDS011;49809;47.418;19.080;2024-01-30T18:29:03;66.32;;;27.50;;
63653;SDS011;49809;47.418;19.080;2024-01-30T18:32:15;59.53;;;25.20;;
63653;SDS011;49809;47.418;19.080;2024-01-30T18:35:22;51.45;;;23.67;;
63653;SDS011;49809;47.418;19.080;2024-01-30T18:38:30;56.95;;;23.87;;
63653;SDS011;49809;47.418;19.080;2024-01-30T18:44:40;61.33;;;25.58;;
63653;SDS011;49809;47.418;19.080;2024-01-30T18:47:44;60.97;;;26.23;;
63653;SDS011;49809;47.418;19.080;2024-01-30T18:50:49;58.80;;;25.95;;
63653;SDS011;49809;47.418;19.080;2024-01-30T18:53:57;65.18;;;26.62;;
63653;SDS011;49809;47.418;19.080;2024-01-30T18:57:07;62.65;;;25.88;;
63653;SDS011;49809;47.418;19.080;2024-01-30T19:00:14;71.90;;;28.25;;
63653;SDS011;49809;47.418;19.080;2024-01-30T19:03:21;66.30;;;26.62;;
63653;SDS011;49809;47.418;19.080;2024-01-30T19:06:33;79.37;;;29.63;;
63653;SDS011;49809;47.418;19.080;2024-01-30T19:09:47;65.87;;;27.15;;
63653;SDS011;49809;47.418;19.080;2024-01-30T19:12:51;67.65;;;27.87;;
63653;SDS011;49809;47.418;19.080;2024-01-30T19:16:34;64.18;;;26.50;;
63653;SDS011;49809;47.418;19.080;2024-01-30T19:19:39;67.70;;;27.25;;
63653;SDS011;49809;47.418;19.080;2024-01-30T19:22:47;52.65;;;24.95;;
63653;SDS011;49809;47.418;19.080;2024-01-30T19:25:55;63.87;;;27.05;;
63653;SDS011;49809;47.418;19.080;2024-01-30T19:29:20;61.83;;;28.60;;
63653;SDS011;49809;47.418;19.080;2024-01-30T19:32:56;61.78;;;26.37;;
63653;SDS011;49809;47.418;19.080;2024-01-30T19:36:01;66.25;;;26.10;;
63653;SDS011;49809;47.418;19.080;2024-01-30T19:39:05;65.68;;;25.98;;
63653;SDS011;49809;47.418;19.080;2024-01-30T19:42:25;59.33;;;25.10;;
63653;SDS011;49809;47.418;19.080;2024-01-30T19:45:34;64.15;;;27.05;;
63653;SDS011;49809;47.418;19.080;2024-01-30T19:48:42;66.50;;;26.23;;
63653;SDS011;49809;47.418;19.080;2024-01-30T19:52:08;55.33;;;23.75;;
63653;SDS011;49809;47.418;19.080;2024-01-30T19:55:13;64.00;;;26.73;;
63653;SDS011;49809;47.418;19.080;2024-01-30T19:58:22;63.17;;;25.83;;
63653;SDS011;49809;47.418;19.080;2024-01-30T20:02:21;68.53;;;27.83;;
63653;SDS011;49809;47.418;19.080;2024-01-30T20:08:55;60.08;;;25.37;;
63653;SDS011;49809;47.418;19.080;2024-01-30T20:16:25;64.60;;;25.85;;
63653;SDS011;49809;47.418;19.080;2024-01-30T20:19:50;60.20;;;25.92;;
63653;SDS011;49809;47.418;19.080;2024-01-30T20:26:18;55.00;;;23.50;;
63653;SDS011;49809;47.418;19.080;2024-01-30T20:29:24;60.78;;;24.75;;
63653;SDS011;49809;47.418;19.080;2024-01-30T20:32:49;57.80;;;23.80;;
63653;SDS011;49809;47.418;19.080;2024-01-30T20:35:58;60.50;;;26.85;;
63653;SDS011;49809;47.418;19.080;2024-01-30T20:39:02;61.60;;;26.45;;
63653;SDS011;49809;47.418;19.080;2024-01-30T20:42:30;71.03;;;29.08;;
63653;SDS011;49809;47.418;19.080;2024-01-30T20:45:37;74.60;;;29.30;;
63653;SDS011;49809;47.418;19.080;2024-01-30T20:49:00;64.45;;;25.10;;
63653;SDS011;49809;47.418;19.080;2024-01-30T20:52:05;68.53;;;27.42;;
63653;SDS011;49809;47.418;19.080;2024-01-30T20:55:10;70.90;;;27.62;;
63653;SDS011;49809;47.418;19.080;2024-01-30T20:58:15;67.60;;;27.58;;